Webcam

2021/10/27 08:20 EBBR 270820Z 21008KT 9999 BKN009 13/10 Q1024 BECMG FEW009

Webcam

--- Refresh now ---